Portada
METAR-TAF:

METAR-TAF

Aeroports :

Columbia, Carolina del Sud, Estats Units d'Amèrica

latitud: 33-56-31N, longitud: 081-07-05W, altitud: 71 m

Observació

L'informe es va fer fa 45 minuts, a les 21:56 UTC
Vent 5 kt del Est
Temperatura 6°C
Humitat 33%
Pressió 1027 hPa
Visibilitat: 16.1 km
Cel clar

METAR: KCAE 132156Z 08005KT 10SM CLR 06/M09 A3032 RMK AO2 SLP270 T00611089

Hora: 17:41 (22:41 UTC)

Pronòstic

L'informe es va fer fa 1 hora i 2 minuts, a les 21:39 UTC
Pronòstic vàlid del 13 a les 22 UTC al 14 a les 18 UTC
Vent 7 kt del Est/Nord-Est
Visibilitat: 10 km
Cel clar
A partir de les 13 a les 2300 UTC
Vent 3 kt del Nord-Est
Visibilitat: 10 km
Cel clar
A partir de les 14 a les 1000 UTC
Vent 4 kt del Nord-Est
Visibilitat: 10 km
Cel ennuvolat a una alçada de 5000 ft

TAF: KCAE 132139Z 1322/1418 07007KT P6SM SKC FM132300 05003KT P6SM SKC FM141000 04004KT P6SM BKN050

Observacions i pronòstics meteorològics de més de 4000 aeroports (METAR i TAF).

Les estacions disponibles són els punts grocs i vermells al mapa.

Posi el ratolí al punt desitjat per veure el nom de l'estació.

Feu clic per veure les observacions i els pronòstics meteorològics.

Per canviar el mapa: feu clic els botons verds amb una creu de color negre per apropar; al botó verd amb un guió per allunyar la imatge; o en les fletxes verdes per a mapes adjacents.


METAR-TAF: